Joy — WDJ7558 — position and weather

sailwx.info

Track history (hours):
 
Tides and Currents Weather Stations Pressure Air Temp Water Temp Dewpoint Dewpoint Depression Visibility Wind Speed Wind Dir Waves Ship Positions

Joy

Owner: Cros, Francois J, Miami, FL. More information available from US FCC via Universal Licensing System and Coast Guard Vessel Documentation Center.

Last reported at 2017-Nov-12 06:23 UTC. Time now 2017-Nov-21 12:17 UTC.
Position N 28°41' W 015°44'.
Warning: this ship's position is 9 days out of date.

Type: Sailing vessel. MMSI: 368007920.

Date/timePositionNaut miles runAvg speedWind from/ knotsBaromVisibWave heightAir tempDewpointWater temp
2017-Nov-12 06:23N 28°41' W 015°44'12 6.6
2017-Nov-12 04:30N 28°36' W 015°31'3 6.3
2017-Nov-12 04:00N 28°35' W 015°28'3 6.0
2017-Nov-12 03:30N 28°33' W 015°25'3 6.4
2017-Nov-12 03:00N 28°32' W 015°21'4 6.8
2017-Nov-12 02:29N 28°30' W 015°18'3 5.6
2017-Nov-12 01:59N 28°32' W 015°16'4 7.2
2017-Nov-12 01:23N 28°36' W 015°14'92 4.6
2017-Nov-11 05:17N 28°58' W 013°32'0 0.0
2017-Nov-11 04:35N 28°58' W 013°32'0 0.0
2017-Nov-11 04:26N 28°58' W 013°32'0 0.0
2017-Nov-11 03:53N 28°58' W 013°32'0 0.0
2017-Nov-11 03:29N 28°58' W 013°32'0 0.0
2017-Nov-11 02:41N 28°58' W 013°32'0 0.0
2017-Nov-11 01:47N 28°58' W 013°32'0 0.0
2017-Nov-11 01:29N 28°58' W 013°32'0 0.0
2017-Nov-10 17:20N 28°58' W 013°32'0 0.0
2017-Nov-10 16:56N 28°58' W 013°32'0 0.0
2017-Nov-10 15:59N 28°58' W 013°32'0 0.0
2017-Nov-10 15:23N 28°58' W 013°32'0 0.0
2017-Nov-10 14:59N 28°58' W 013°32'0 0.0
2017-Nov-10 14:14N 28°58' W 013°32'0 0.0
2017-Nov-10 13:53N 28°58' W 013°32'0 0.0
2017-Nov-10 13:02N 28°58' W 013°32'0 0.0
2017-Nov-10 12:56N 28°58' W 013°32'0 0.0
2017-Nov-10 12:29N 28°58' W 013°32'0 0.0
2017-Nov-10 11:56N 28°58' W 013°32'0 0.0
2017-Nov-10 11:26N 28°58' W 013°32'0 0.0
2017-Nov-10 10:59N 28°58' W 013°32'0 0.0
2017-Nov-09 14:14N 28°58' W 013°32'0 0.0
2017-Nov-09 13:47N 28°58' W 013°32'0 0.0
2017-Nov-09 13:29N 28°58' W 013°32'0 0.0
2017-Nov-09 12:38N 28°58' W 013°32'0 0.0
2017-Nov-09 12:29N 28°58' W 013°32'0 0.0
2017-Nov-09 11:56N 28°58' W 013°32'0 0.0
2017-Nov-09 10:26N 28°58' W 013°32'0 0.0
2017-Nov-09 09:56N 28°58' W 013°32'0 0.0
2017-Nov-09 09:29N 28°58' W 013°32'0 0.0
2017-Nov-09 08:53N 28°58' W 013°32'0 0.0
2017-Nov-09 08:26N 28°58' W 013°32'0 0.0
2017-Nov-09 07:56N 28°58' W 013°32'0 0.0
2017-Nov-09 07:29N 28°58' W 013°32'0 0.0
2017-Nov-09 06:59N 28°58' W 013°32'0 0.0
2017-Nov-09 06:26N 28°58' W 013°32'0 0.0
2017-Nov-09 05:56N 28°58' W 013°32'0 0.0
2017-Nov-09 05:23N 28°58' W 013°32'0 0.0
2017-Nov-09 04:56N 28°58' W 013°32'0 0.0
2017-Nov-09 04:20N 28°58' W 013°32'0 0.0
2017-Nov-09 03:56N 28°58' W 013°32'0 0.0
2017-Nov-09 03:05N 28°58' W 013°32'0 0.0
2017-Nov-08 19:44N 28°58' W 013°32'0 0.0
2017-Nov-08 16:32N 28°58' W 013°32'0 0.0
2017-Nov-08 16:20N 28°58' W 013°32'0 0.0
2017-Nov-08 15:44N 28°58' W 013°32'0 0.0
2017-Nov-08 15:26N 28°58' W 013°32'0 0.0
2017-Nov-08 14:44N 28°58' W 013°32'0 0.0
2017-Nov-08 12:47N 28°58' W 013°32'0 0.0
2017-Nov-08 12:08N 28°58' W 013°32'0 0.0
2017-Nov-08 11:56N 28°58' W 013°32'0 0.0
2017-Nov-08 10:29N 28°58' W 013°32'0 0.0
2017-Nov-07 12:05N 28°58' W 013°32'0 0.0
2017-Nov-07 11:53N 28°58' W 013°32'0 0.0
2017-Nov-07 06:44N 28°58' W 013°32'0 0.0
2017-Nov-07 05:59N 28°58' W 013°32'0 0.0
2017-Nov-07 04:14N 28°58' W 013°32'0 0.0
2017-Nov-07 02:05N 28°58' W 013°32'0 0.0
2017-Nov-07 01:59N 28°58' W 013°32'0 0.0
2017-Nov-05 23:29N 28°58' W 013°32'0 0.0
2017-Nov-05 21:44N 28°58' W 013°32'0 0.0
2017-Nov-05 20:44N 28°58' W 013°32'0 0.0
2017-Nov-05 18:17N 28°58' W 013°32'0 0.0
2017-Nov-05 17:59N 28°58' W 013°32'0 0.0
2017-Nov-05 17:29N 28°58' W 013°32'0 0.0
2017-Nov-05 15:32N 28°58' W 013°32'0 0.0
2017-Nov-05 15:05N 28°58' W 013°32'0 0.1
2017-Nov-05 14:59N 28°58' W 013°32'0 0.0
2017-Nov-05 14:17N 28°58' W 013°32'0 0.0
2017-Nov-05 13:59N 28°58' W 013°32'0 0.0
2017-Nov-05 13:02N 28°58' W 013°32'0 0.0
2017-Nov-05 12:41N 28°58' W 013°32'0 0.0
2017-Nov-05 12:23N 28°58' W 013°32'0 0.0
2017-Nov-05 11:53N 28°58' W 013°32'0 0.0
2017-Nov-05 11:17N 28°58' W 013°32'0 0.0
2017-Nov-05 10:53N 28°58' W 013°32'0 0.0
2017-Nov-05 10:17N 28°58' W 013°32'0 0.0
2017-Nov-05 09:59N 28°58' W 013°32'0 0.0
2017-Nov-05 09:13N 28°58' W 013°32'0 1.4
2017-Nov-05 08:59N 28°58' W 013°32'1 0.5
2017-Nov-05 06:58N 28°57' W 013°33'0 0.0
2017-Nov-05 02:46N 28°57' W 013°33'0 0.0
2017-Nov-04 21:16N 28°57' W 013°33'0 0.0
2017-Nov-04 19:10N 28°57' W 013°33'0 0.0
2017-Nov-04 18:46N 28°57' W 013°33'0 0.0
2017-Nov-04 17:40N 28°57' W 013°33'0 0.0
2017-Nov-04 17:22N 28°57' W 013°33'0 0.0
2017-Nov-04 15:10N 28°57' W 013°33'0 0.0
2017-Nov-04 10:08N 28°57' W 013°33'0 0.0
2017-Nov-04 06:29N 28°57' W 013°33'1 0.1
2017-Nov-04 02:14N 28°57' W 013°32'2 7.5
2017-Nov-04 01:59N 28°58' W 013°30'4 5.4
2017-Nov-04 01:18N 28°56' W 013°26'  
Track history (hours):
 
Tides and Currents Weather Stations Pressure Air Temp Water Temp Dewpoint Dewpoint Depression Visibility Wind Speed Wind Dir Waves Ship Positions

Joy

Owner: Cros, Francois J, Miami, FL. More information available from US FCC via Universal Licensing System and Coast Guard Vessel Documentation Center.

Last reported at 2017-Nov-12 06:23 UTC. Time now 2017-Nov-21 12:17 UTC.
Position N 28°41' W 015°44'.
Warning: this ship's position is 9 days out of date.

Type: Sailing vessel. MMSI: 368007920.

Date/timePositionNaut miles runAvg speedWind from/ knotsBaromVisibWave heightAir tempDewpointWater temp
2017-Nov-12 06:23N 28°41' W 015°44'12 6.6
2017-Nov-12 04:30N 28°36' W 015°31'3 6.3
2017-Nov-12 04:00N 28°35' W 015°28'3 6.0
2017-Nov-12 03:30N 28°33' W 015°25'3 6.4
2017-Nov-12 03:00N 28°32' W 015°21'4 6.8
2017-Nov-12 02:29N 28°30' W 015°18'3 5.6
2017-Nov-12 01:59N 28°32' W 015°16'4 7.2
2017-Nov-12 01:23N 28°36' W 015°14'92 4.6
2017-Nov-11 05:17N 28°58' W 013°32'0 0.0
2017-Nov-11 04:35N 28°58' W 013°32'0 0.0
2017-Nov-11 04:26N 28°58' W 013°32'0 0.0
2017-Nov-11 03:53N 28°58' W 013°32'0 0.0
2017-Nov-11 03:29N 28°58' W 013°32'0 0.0
2017-Nov-11 02:41N 28°58' W 013°32'0 0.0
2017-Nov-11 01:47N 28°58' W 013°32'0 0.0
2017-Nov-11 01:29N 28°58' W 013°32'0 0.0
2017-Nov-10 17:20N 28°58' W 013°32'0 0.0
2017-Nov-10 16:56N 28°58' W 013°32'0 0.0
2017-Nov-10 15:59N 28°58' W 013°32'0 0.0
2017-Nov-10 15:23N 28°58' W 013°32'0 0.0
2017-Nov-10 14:59N 28°58' W 013°32'0 0.0
2017-Nov-10 14:14N 28°58' W 013°32'0 0.0
2017-Nov-10 13:53N 28°58' W 013°32'0 0.0
2017-Nov-10 13:02N 28°58' W 013°32'0 0.0
2017-Nov-10 12:56N 28°58' W 013°32'0 0.0
2017-Nov-10 12:29N 28°58' W 013°32'0 0.0
2017-Nov-10 11:56N 28°58' W 013°32'0 0.0
2017-Nov-10 11:26N 28°58' W 013°32'0 0.0
2017-Nov-10 10:59N 28°58' W 013°32'0 0.0
2017-Nov-09 14:14N 28°58' W 013°32'0 0.0
2017-Nov-09 13:47N 28°58' W 013°32'0 0.0
2017-Nov-09 13:29N 28°58' W 013°32'0 0.0
2017-Nov-09 12:38N 28°58' W 013°32'0 0.0
2017-Nov-09 12:29N 28°58' W 013°32'0 0.0
2017-Nov-09 11:56N 28°58' W 013°32'0 0.0
2017-Nov-09 10:26N 28°58' W 013°32'0 0.0
2017-Nov-09 09:56N 28°58' W 013°32'0 0.0
2017-Nov-09 09:29N 28°58' W 013°32'0 0.0
2017-Nov-09 08:53N 28°58' W 013°32'0 0.0
2017-Nov-09 08:26N 28°58' W 013°32'0 0.0
2017-Nov-09 07:56N 28°58' W 013°32'0 0.0
2017-Nov-09 07:29N 28°58' W 013°32'0 0.0
2017-Nov-09 06:59N 28°58' W 013°32'0 0.0
2017-Nov-09 06:26N 28°58' W 013°32'0 0.0
2017-Nov-09 05:56N 28°58' W 013°32'0 0.0
2017-Nov-09 05:23N 28°58' W 013°32'0 0.0
2017-Nov-09 04:56N 28°58' W 013°32'0 0.0
2017-Nov-09 04:20N 28°58' W 013°32'0 0.0
2017-Nov-09 03:56N 28°58' W 013°32'0 0.0
2017-Nov-09 03:05N 28°58' W 013°32'0 0.0
2017-Nov-08 19:44N 28°58' W 013°32'0 0.0
2017-Nov-08 16:32N 28°58' W 013°32'0 0.0
2017-Nov-08 16:20N 28°58' W 013°32'0 0.0
2017-Nov-08 15:44N 28°58' W 013°32'0 0.0
2017-Nov-08 15:26N 28°58' W 013°32'0 0.0
2017-Nov-08 14:44N 28°58' W 013°32'0 0.0
2017-Nov-08 12:47N 28°58' W 013°32'0 0.0
2017-Nov-08 12:08N 28°58' W 013°32'0 0.0
2017-Nov-08 11:56N 28°58' W 013°32'0 0.0
2017-Nov-08 10:29N 28°58' W 013°32'0 0.0
2017-Nov-07 12:05N 28°58' W 013°32'0 0.0
2017-Nov-07 11:53N 28°58' W 013°32'0 0.0
2017-Nov-07 06:44N 28°58' W 013°32'0 0.0
2017-Nov-07 05:59N 28°58' W 013°32'0 0.0
2017-Nov-07 04:14N 28°58' W 013°32'0 0.0
2017-Nov-07 02:05N 28°58' W 013°32'0 0.0
2017-Nov-07 01:59N 28°58' W 013°32'0 0.0
2017-Nov-05 23:29N 28°58' W 013°32'0 0.0
2017-Nov-05 21:44N 28°58' W 013°32'0 0.0
2017-Nov-05 20:44N 28°58' W 013°32'0 0.0
2017-Nov-05 18:17N 28°58' W 013°32'0 0.0
2017-Nov-05 17:59N 28°58' W 013°32'0 0.0
2017-Nov-05 17:29N 28°58' W 013°32'0 0.0
2017-Nov-05 15:32N 28°58' W 013°32'0 0.0
2017-Nov-05 15:05N 28°58' W 013°32'0 0.1
2017-Nov-05 14:59N 28°58' W 013°32'0 0.0
2017-Nov-05 14:17N 28°58' W 013°32'0 0.0
2017-Nov-05 13:59N 28°58' W 013°32'0 0.0
2017-Nov-05 13:02N 28°58' W 013°32'0 0.0
2017-Nov-05 12:41N 28°58' W 013°32'0 0.0
2017-Nov-05 12:23N 28°58' W 013°32'0 0.0
2017-Nov-05 11:53N 28°58' W 013°32'0 0.0
2017-Nov-05 11:17N 28°58' W 013°32'0 0.0
2017-Nov-05 10:53N 28°58' W 013°32'0 0.0
2017-Nov-05 10:17N 28°58' W 013°32'0 0.0
2017-Nov-05 09:59N 28°58' W 013°32'0 0.0
2017-Nov-05 09:13N 28°58' W 013°32'0 1.4
2017-Nov-05 08:59N 28°58' W 013°32'1 0.5
2017-Nov-05 06:58N 28°57' W 013°33'0 0.0
2017-Nov-05 02:46N 28°57' W 013°33'0 0.0
2017-Nov-04 21:16N 28°57' W 013°33'0 0.0
2017-Nov-04 19:10N 28°57' W 013°33'0 0.0
2017-Nov-04 18:46N 28°57' W 013°33'0 0.0
2017-Nov-04 17:40N 28°57' W 013°33'0 0.0
2017-Nov-04 17:22N 28°57' W 013°33'0 0.0
2017-Nov-04 15:10N 28°57' W 013°33'0 0.0
2017-Nov-04 10:08N 28°57' W 013°33'0 0.0
2017-Nov-04 06:29N 28°57' W 013°33'1 0.1
2017-Nov-04 02:14N 28°57' W 013°32'2 7.5
2017-Nov-04 01:59N 28°58' W 013°30'4 5.4
2017-Nov-04 01:18N 28°56' W 013°26'  

Dump ship's entire track history